sensor_id;sensor_type;location;lat;lon;timestamp;P1;durP1;ratioP1;P2;durP2;ratioP2
4889;SDS011;2459;42.268;23.112;2022-12-07T00:01:20;51.13;;;19.83;;
4889;SDS011;2459;42.268;23.112;2022-12-07T00:03:48;50.27;;;20.93;;
4889;SDS011;2459;42.268;23.112;2022-12-07T00:06:15;45.03;;;21.27;;
4889;SDS011;2459;42.268;23.112;2022-12-07T00:08:43;35.40;;;17.30;;
4889;SDS011;2459;42.268;23.112;2022-12-07T00:11:10;35.13;;;18.17;;
4889;SDS011;2459;42.268;23.112;2022-12-07T00:13:37;46.37;;;19.33;;
4889;SDS011;2459;42.268;23.112;2022-12-07T00:16:04;56.03;;;22.50;;
4889;SDS011;2459;42.268;23.112;2022-12-07T00:18:31;46.60;;;19.80;;
4889;SDS011;2459;42.268;23.112;2022-12-07T00:21:02;57.23;;;21.13;;
4889;SDS011;2459;42.268;23.112;2022-12-07T00:23:30;40.20;;;19.50;;
4889;SDS011;2459;42.268;23.112;2022-12-07T00:26:02;33.93;;;16.93;;
4889;SDS011;2459;42.268;23.112;2022-12-07T00:28:28;53.13;;;17.33;;
4889;SDS011;2459;42.268;23.112;2022-12-07T00:30:59;44.73;;;20.47;;
4889;SDS011;2459;42.268;23.112;2022-12-07T00:33:25;49.00;;;19.77;;
4889;SDS011;2459;42.268;23.112;2022-12-07T00:35:54;48.77;;;20.90;;
4889;SDS011;2459;42.268;23.112;2022-12-07T00:38:22;44.07;;;18.50;;
4889;SDS011;2459;42.268;23.112;2022-12-07T00:40:53;41.53;;;20.10;;
4889;SDS011;2459;42.268;23.112;2022-12-07T00:43:20;43.40;;;20.77;;
4889;SDS011;2459;42.268;23.112;2022-12-07T00:45:46;43.43;;;19.40;;
4889;SDS011;2459;42.268;23.112;2022-12-07T00:48:13;50.73;;;20.27;;
4889;SDS011;2459;42.268;23.112;2022-12-07T00:50:39;41.70;;;19.07;;
4889;SDS011;2459;42.268;23.112;2022-12-07T00:53:05;39.40;;;18.77;;
4889;SDS011;2459;42.268;23.112;2022-12-07T00:55:34;51.03;;;22.10;;
4889;SDS011;2459;42.268;23.112;2022-12-07T00:58:00;55.40;;;21.57;;
4889;SDS011;2459;42.268;23.112;2022-12-07T01:00:26;41.23;;;18.43;;
4889;SDS011;2459;42.268;23.112;2022-12-07T01:02:53;40.80;;;18.17;;
4889;SDS011;2459;42.268;23.112;2022-12-07T01:05:20;40.73;;;17.80;;
4889;SDS011;2459;42.268;23.112;2022-12-07T01:07:46;42.07;;;18.43;;
4889;SDS011;2459;42.268;23.112;2022-12-07T01:10:13;55.43;;;19.83;;
4889;SDS011;2459;42.268;23.112;2022-12-07T01:12:41;49.20;;;18.77;;
4889;SDS011;2459;42.268;23.112;2022-12-07T01:15:08;32.47;;;15.93;;
4889;SDS011;2459;42.268;23.112;2022-12-07T01:17:34;50.40;;;18.53;;
4889;SDS011;2459;42.268;23.112;2022-12-07T01:20:01;41.23;;;20.13;;
4889;SDS011;2459;42.268;23.112;2022-12-07T01:22:27;58.60;;;20.87;;
4889;SDS011;2459;42.268;23.112;2022-12-07T01:24:54;41.73;;;18.60;;
4889;SDS011;2459;42.268;23.112;2022-12-07T01:27:21;42.50;;;17.30;;
4889;SDS011;2459;42.268;23.112;2022-12-07T01:29:49;105.37;;;38.37;;
4889;SDS011;2459;42.268;23.112;2022-12-07T01:32:17;76.23;;;30.10;;
4889;SDS011;2459;42.268;23.112;2022-12-07T01:34:43;67.13;;;25.57;;
4889;SDS011;2459;42.268;23.112;2022-12-07T01:37:09;37.90;;;18.17;;
4889;SDS011;2459;42.268;23.112;2022-12-07T01:39:36;36.00;;;17.93;;
4889;SDS011;2459;42.268;23.112;2022-12-07T01:42:02;33.57;;;16.20;;
4889;SDS011;2459;42.268;23.112;2022-12-07T01:44:29;27.87;;;12.73;;
4889;SDS011;2459;42.268;23.112;2022-12-07T01:46:59;35.67;;;16.73;;
4889;SDS011;2459;42.268;23.112;2022-12-07T01:49:27;32.37;;;17.87;;
4889;SDS011;2459;42.268;23.112;2022-12-07T01:51:56;36.50;;;15.07;;
4889;SDS011;2459;42.268;23.112;2022-12-07T01:54:23;30.20;;;13.80;;
4889;SDS011;2459;42.268;23.112;2022-12-07T01:56:51;33.20;;;14.33;;
4889;SDS011;2459;42.268;23.112;2022-12-07T01:59:19;42.13;;;15.57;;
4889;SDS011;2459;42.268;23.112;2022-12-07T02:01:46;32.07;;;15.40;;
4889;SDS011;2459;42.268;23.112;2022-12-07T02:04:14;36.50;;;15.67;;
4889;SDS011;2459;42.268;23.112;2022-12-07T02:06:40;35.23;;;15.73;;
4889;SDS011;2459;42.268;23.112;2022-12-07T02:09:07;46.63;;;17.50;;
4889;SDS011;2459;42.268;23.112;2022-12-07T02:11:34;36.67;;;16.27;;
4889;SDS011;2459;42.268;23.112;2022-12-07T02:14:01;35.90;;;16.30;;
4889;SDS011;2459;42.268;23.112;2022-12-07T02:16:29;44.47;;;17.90;;
4889;SDS011;2459;42.268;23.112;2022-12-07T02:19:05;90.33;;;33.63;;
4889;SDS011;2459;42.268;23.112;2022-12-07T02:21:38;58.77;;;23.97;;
4889;SDS011;2459;42.268;23.112;2022-12-07T02:24:19;39.60;;;19.00;;
4889;SDS011;2459;42.268;23.112;2022-12-07T02:29:35;33.57;;;13.50;;
4889;SDS011;2459;42.268;23.112;2022-12-07T02:32:03;37.10;;;14.73;;
4889;SDS011;2459;42.268;23.112;2022-12-07T02:34:34;45.73;;;15.90;;
4889;SDS011;2459;42.268;23.112;2022-12-07T02:37:07;36.53;;;18.80;;
4889;SDS011;2459;42.268;23.112;2022-12-07T02:39:37;29.47;;;14.50;;
4889;SDS011;2459;42.268;23.112;2022-12-07T02:42:09;37.30;;;15.93;;
4889;SDS011;2459;42.268;23.112;2022-12-07T02:44:40;39.20;;;17.53;;
4889;SDS011;2459;42.268;23.112;2022-12-07T02:47:07;44.33;;;18.63;;
4889;SDS011;2459;42.268;23.112;2022-12-07T02:49:35;35.83;;;16.00;;
4889;SDS011;2459;42.268;23.112;2022-12-07T02:52:02;46.47;;;18.63;;
4889;SDS011;2459;42.268;23.112;2022-12-07T02:54:29;39.40;;;16.57;;
4889;SDS011;2459;42.268;23.112;2022-12-07T02:56:56;60.10;;;22.50;;
4889;SDS011;2459;42.268;23.112;2022-12-07T02:59:26;41.93;;;16.03;;
4889;SDS011;2459;42.268;23.112;2022-12-07T03:01:58;40.60;;;15.03;;
4889;SDS011;2459;42.268;23.112;2022-12-07T03:04:32;53.97;;;20.00;;
4889;SDS011;2459;42.268;23.112;2022-12-07T03:07:00;50.50;;;21.27;;
4889;SDS011;2459;42.268;23.112;2022-12-07T03:09:29;43.43;;;20.13;;
4889;SDS011;2459;42.268;23.112;2022-12-07T03:12:00;42.93;;;18.07;;
4889;SDS011;2459;42.268;23.112;2022-12-07T03:14:30;36.00;;;16.70;;
4889;SDS011;2459;42.268;23.112;2022-12-07T03:17:00;39.10;;;16.23;;
4889;SDS011;2459;42.268;23.112;2022-12-07T03:19:29;39.10;;;15.47;;
4889;SDS011;2459;42.268;23.112;2022-12-07T03:21:57;39.43;;;16.20;;
4889;SDS011;2459;42.268;23.112;2022-12-07T03:24:26;33.50;;;15.57;;
4889;SDS011;2459;42.268;23.112;2022-12-07T03:26:54;38.43;;;13.70;;
4889;SDS011;2459;42.268;23.112;2022-12-07T03:29:23;36.43;;;14.80;;
4889;SDS011;2459;42.268;23.112;2022-12-07T03:31:51;55.47;;;19.40;;
4889;SDS011;2459;42.268;23.112;2022-12-07T03:34:24;52.53;;;21.03;;
4889;SDS011;2459;42.268;23.112;2022-12-07T03:36:52;32.97;;;13.47;;
4889;SDS011;2459;42.268;23.112;2022-12-07T03:39:22;32.73;;;14.43;;
4889;SDS011;2459;42.268;23.112;2022-12-07T03:41:51;34.37;;;15.90;;
4889;SDS011;2459;42.268;23.112;2022-12-07T03:44:18;44.80;;;18.63;;
4889;SDS011;2459;42.268;23.112;2022-12-07T03:46:45;49.37;;;19.20;;
4889;SDS011;2459;42.268;23.112;2022-12-07T03:49:18;47.97;;;20.37;;
4889;SDS011;2459;42.268;23.112;2022-12-07T03:51:50;42.77;;;17.80;;
4889;SDS011;2459;42.268;23.112;2022-12-07T03:54:18;41.57;;;18.63;;
4889;SDS011;2459;42.268;23.112;2022-12-07T03:56:45;43.47;;;18.03;;
4889;SDS011;2459;42.268;23.112;2022-12-07T03:59:12;38.90;;;19.00;;
4889;SDS011;2459;42.268;23.112;2022-12-07T04:01:41;47.90;;;19.57;;
4889;SDS011;2459;42.268;23.112;2022-12-07T04:04:07;40.37;;;18.30;;
4889;SDS011;2459;42.268;23.112;2022-12-07T04:06:34;34.87;;;15.00;;
4889;SDS011;2459;42.268;23.112;2022-12-07T04:09:02;37.53;;;13.80;;
4889;SDS011;2459;42.268;23.112;2022-12-07T04:11:28;23.63;;;13.73;;
4889;SDS011;2459;42.268;23.112;2022-12-07T04:13:55;46.20;;;20.17;;
4889;SDS011;2459;42.268;23.112;2022-12-07T04:16:38;44.03;;;16.90;;
4889;SDS011;2459;42.268;23.112;2022-12-07T04:19:05;41.57;;;16.80;;
4889;SDS011;2459;42.268;23.112;2022-12-07T04:21:31;43.03;;;16.30;;
4889;SDS011;2459;42.268;23.112;2022-12-07T04:23:58;34.37;;;17.13;;
4889;SDS011;2459;42.268;23.112;2022-12-07T04:26:26;64.03;;;20.60;;
4889;SDS011;2459;42.268;23.112;2022-12-07T04:28:52;50.17;;;20.10;;
4889;SDS011;2459;42.268;23.112;2022-12-07T04:31:18;41.63;;;19.07;;
4889;SDS011;2459;42.268;23.112;2022-12-07T04:33:45;48.27;;;19.17;;
4889;SDS011;2459;42.268;23.112;2022-12-07T04:36:11;61.77;;;21.83;;
4889;SDS011;2459;42.268;23.112;2022-12-07T04:38:38;35.67;;;16.97;;
4889;SDS011;2459;42.268;23.112;2022-12-07T04:41:05;53.03;;;21.50;;
4889;SDS011;2459;42.268;23.112;2022-12-07T04:43:33;36.90;;;18.70;;
4889;SDS011;2459;42.268;23.112;2022-12-07T04:46:00;77.93;;;30.10;;
4889;SDS011;2459;42.268;23.112;2022-12-07T04:48:26;49.33;;;26.40;;
4889;SDS011;2459;42.268;23.112;2022-12-07T04:50:53;146.70;;;55.00;;
4889;SDS011;2459;42.268;23.112;2022-12-07T04:53:19;44.40;;;19.77;;
4889;SDS011;2459;42.268;23.112;2022-12-07T04:55:45;82.57;;;33.70;;
4889;SDS011;2459;42.268;23.112;2022-12-07T04:58:12;68.53;;;25.73;;
4889;SDS011;2459;42.268;23.112;2022-12-07T05:00:40;43.07;;;23.10;;
4889;SDS011;2459;42.268;23.112;2022-12-07T05:03:07;55.90;;;29.07;;
4889;SDS011;2459;42.268;23.112;2022-12-07T05:05:33;53.47;;;27.70;;
4889;SDS011;2459;42.268;23.112;2022-12-07T05:08:00;57.77;;;26.50;;
4889;SDS011;2459;42.268;23.112;2022-12-07T05:10:26;61.20;;;27.27;;
4889;SDS011;2459;42.268;23.112;2022-12-07T05:12:53;59.40;;;25.70;;
4889;SDS011;2459;42.268;23.112;2022-12-07T05:15:19;62.97;;;23.73;;
4889;SDS011;2459;42.268;23.112;2022-12-07T05:17:47;51.77;;;25.00;;
4889;SDS011;2459;42.268;23.112;2022-12-07T05:20:13;105.70;;;33.37;;
4889;SDS011;2459;42.268;23.112;2022-12-07T05:22:40;80.10;;;29.90;;
4889;SDS011;2459;42.268;23.112;2022-12-07T05:25:07;64.77;;;27.93;;
4889;SDS011;2459;42.268;23.112;2022-12-07T05:27:33;66.37;;;26.00;;
4889;SDS011;2459;42.268;23.112;2022-12-07T05:30:00;82.93;;;31.43;;
4889;SDS011;2459;42.268;23.112;2022-12-07T05:32:26;67.33;;;30.00;;
4889;SDS011;2459;42.268;23.112;2022-12-07T05:34:54;69.30;;;28.63;;
4889;SDS011;2459;42.268;23.112;2022-12-07T05:37:20;76.30;;;29.47;;
4889;SDS011;2459;42.268;23.112;2022-12-07T05:39:47;69.27;;;28.47;;
4889;SDS011;2459;42.268;23.112;2022-12-07T05:42:13;69.30;;;31.57;;
4889;SDS011;2459;42.268;23.112;2022-12-07T05:44:39;81.43;;;29.60;;
4889;SDS011;2459;42.268;23.112;2022-12-07T05:47:05;62.50;;;29.00;;
4889;SDS011;2459;42.268;23.112;2022-12-07T05:49:32;49.10;;;21.97;;
4889;SDS011;2459;42.268;23.112;2022-12-07T05:52:00;111.17;;;40.87;;
4889;SDS011;2459;42.268;23.112;2022-12-07T05:54:26;85.77;;;32.53;;
4889;SDS011;2459;42.268;23.112;2022-12-07T05:56:53;85.23;;;31.40;;
4889;SDS011;2459;42.268;23.112;2022-12-07T05:59:19;87.60;;;35.70;;
4889;SDS011;2459;42.268;23.112;2022-12-07T06:01:48;129.77;;;44.67;;
4889;SDS011;2459;42.268;23.112;2022-12-07T06:04:14;120.37;;;46.13;;
4889;SDS011;2459;42.268;23.112;2022-12-07T06:06:41;106.40;;;49.70;;
4889;SDS011;2459;42.268;23.112;2022-12-07T06:09:08;95.57;;;39.20;;
4889;SDS011;2459;42.268;23.112;2022-12-07T06:11:35;160.77;;;59.87;;
4889;SDS011;2459;42.268;23.112;2022-12-07T06:14:19;167.33;;;66.20;;
4889;SDS011;2459;42.268;23.112;2022-12-07T06:16:45;108.00;;;45.30;;
4889;SDS011;2459;42.268;23.112;2022-12-07T06:19:12;81.67;;;33.80;;
4889;SDS011;2459;42.268;23.112;2022-12-07T06:21:38;76.73;;;29.47;;
4889;SDS011;2459;42.268;23.112;2022-12-07T06:24:05;95.67;;;40.60;;
4889;SDS011;2459;42.268;23.112;2022-12-07T06:26:33;55.07;;;30.20;;
4889;SDS011;2459;42.268;23.112;2022-12-07T06:28:59;76.77;;;31.63;;
4889;SDS011;2459;42.268;23.112;2022-12-07T06:31:26;64.00;;;31.13;;
4889;SDS011;2459;42.268;23.112;2022-12-07T06:33:56;64.80;;;30.60;;
4889;SDS011;2459;42.268;23.112;2022-12-07T06:36:23;74.20;;;32.73;;
4889;SDS011;2459;42.268;23.112;2022-12-07T06:38:49;73.90;;;29.97;;
4889;SDS011;2459;42.268;23.112;2022-12-07T06:41:15;117.07;;;49.73;;
4889;SDS011;2459;42.268;23.112;2022-12-07T06:43:43;73.87;;;32.70;;
4889;SDS011;2459;42.268;23.112;2022-12-07T06:46:10;69.70;;;30.63;;
4889;SDS011;2459;42.268;23.112;2022-12-07T06:48:36;64.47;;;30.40;;
4889;SDS011;2459;42.268;23.112;2022-12-07T06:51:03;107.70;;;33.83;;
4889;SDS011;2459;42.268;23.112;2022-12-07T06:53:29;96.13;;;36.77;;
4889;SDS011;2459;42.268;23.112;2022-12-07T06:55:56;73.97;;;32.47;;
4889;SDS011;2459;42.268;23.112;2022-12-07T06:58:22;57.23;;;29.17;;
4889;SDS011;2459;42.268;23.112;2022-12-07T07:00:50;57.53;;;28.40;;
4889;SDS011;2459;42.268;23.112;2022-12-07T07:03:17;70.57;;;34.33;;
4889;SDS011;2459;42.268;23.112;2022-12-07T07:05:43;73.70;;;32.97;;
4889;SDS011;2459;42.268;23.112;2022-12-07T07:08:10;72.87;;;31.57;;
4889;SDS011;2459;42.268;23.112;2022-12-07T07:10:36;73.03;;;30.83;;
4889;SDS011;2459;42.268;23.112;2022-12-07T07:13:03;81.93;;;33.50;;
4889;SDS011;2459;42.268;23.112;2022-12-07T07:15:30;68.67;;;30.63;;
4889;SDS011;2459;42.268;23.112;2022-12-07T07:17:57;82.07;;;32.30;;
4889;SDS011;2459;42.268;23.112;2022-12-07T07:20:24;64.20;;;29.77;;
4889;SDS011;2459;42.268;23.112;2022-12-07T07:22:52;78.37;;;34.40;;
4889;SDS011;2459;42.268;23.112;2022-12-07T07:25:19;62.70;;;28.33;;
4889;SDS011;2459;42.268;23.112;2022-12-07T07:27:46;128.97;;;58.90;;
4889;SDS011;2459;42.268;23.112;2022-12-07T07:30:13;49.97;;;24.97;;
4889;SDS011;2459;42.268;23.112;2022-12-07T07:32:39;61.33;;;26.47;;
4889;SDS011;2459;42.268;23.112;2022-12-07T07:35:07;50.17;;;24.50;;
4889;SDS011;2459;42.268;23.112;2022-12-07T07:37:34;50.43;;;25.70;;
4889;SDS011;2459;42.268;23.112;2022-12-07T07:40:00;39.07;;;17.53;;
4889;SDS011;2459;42.268;23.112;2022-12-07T07:42:27;28.13;;;15.33;;
4889;SDS011;2459;42.268;23.112;2022-12-07T07:44:53;23.60;;;11.30;;
4889;SDS011;2459;42.268;23.112;2022-12-07T07:47:20;30.00;;;10.40;;
4889;SDS011;2459;42.268;23.112;2022-12-07T07:49:46;26.93;;;11.23;;
4889;SDS011;2459;42.268;23.112;2022-12-07T07:52:14;27.97;;;12.03;;
4889;SDS011;2459;42.268;23.112;2022-12-07T07:54:41;29.90;;;13.17;;
4889;SDS011;2459;42.268;23.112;2022-12-07T07:57:07;30.33;;;14.07;;
4889;SDS011;2459;42.268;23.112;2022-12-07T07:59:34;30.00;;;15.10;;
4889;SDS011;2459;42.268;23.112;2022-12-07T08:02:00;29.53;;;14.60;;
4889;SDS011;2459;42.268;23.112;2022-12-07T08:04:27;33.90;;;13.50;;
4889;SDS011;2459;42.268;23.112;2022-12-07T08:06:53;48.23;;;17.10;;
4889;SDS011;2459;42.268;23.112;2022-12-07T08:09:21;42.57;;;16.00;;
4889;SDS011;2459;42.268;23.112;2022-12-07T08:11:47;39.50;;;13.63;;
4889;SDS011;2459;42.268;23.112;2022-12-07T08:14:14;29.73;;;12.20;;
4889;SDS011;2459;42.268;23.112;2022-12-07T08:16:40;23.90;;;13.57;;
4889;SDS011;2459;42.268;23.112;2022-12-07T08:19:07;22.60;;;11.43;;
4889;SDS011;2459;42.268;23.112;2022-12-07T08:21:33;31.33;;;12.10;;
4889;SDS011;2459;42.268;23.112;2022-12-07T08:24:00;31.07;;;14.33;;
4889;SDS011;2459;42.268;23.112;2022-12-07T08:26:28;24.30;;;13.30;;
4889;SDS011;2459;42.268;23.112;2022-12-07T08:28:54;57.73;;;18.53;;
4889;SDS011;2459;42.268;23.112;2022-12-07T08:31:20;25.53;;;14.00;;
4889;SDS011;2459;42.268;23.112;2022-12-07T08:33:47;30.10;;;12.30;;
4889;SDS011;2459;42.268;23.112;2022-12-07T08:36:14;29.63;;;14.60;;
4889;SDS011;2459;42.268;23.112;2022-12-07T08:38:41;28.17;;;12.30;;
4889;SDS011;2459;42.268;23.112;2022-12-07T08:41:08;40.20;;;19.60;;
4889;SDS011;2459;42.268;23.112;2022-12-07T08:43:36;28.13;;;11.87;;
4889;SDS011;2459;42.268;23.112;2022-12-07T08:46:04;31.17;;;13.70;;
4889;SDS011;2459;42.268;23.112;2022-12-07T08:48:32;24.73;;;12.90;;
4889;SDS011;2459;42.268;23.112;2022-12-07T08:51:00;21.80;;;11.13;;
4889;SDS011;2459;42.268;23.112;2022-12-07T08:53:27;27.93;;;12.23;;
4889;SDS011;2459;42.268;23.112;2022-12-07T08:55:54;49.57;;;13.20;;
4889;SDS011;2459;42.268;23.112;2022-12-07T08:58:21;26.20;;;13.43;;
4889;SDS011;2459;42.268;23.112;2022-12-07T09:00:49;42.93;;;17.93;;
4889;SDS011;2459;42.268;23.112;2022-12-07T09:03:15;29.00;;;15.53;;
4889;SDS011;2459;42.268;23.112;2022-12-07T09:05:50;26.50;;;13.07;;
4889;SDS011;2459;42.268;23.112;2022-12-07T09:08:18;32.90;;;13.60;;
4889;SDS011;2459;42.268;23.112;2022-12-07T09:10:45;18.43;;;10.93;;
4889;SDS011;2459;42.268;23.112;2022-12-07T09:13:12;26.00;;;14.10;;
4889;SDS011;2459;42.268;23.112;2022-12-07T09:15:39;20.20;;;12.10;;
4889;SDS011;2459;42.268;23.112;2022-12-07T09:18:07;20.43;;;10.50;;
4889;SDS011;2459;42.268;23.112;2022-12-07T09:20:33;25.23;;;10.20;;
4889;SDS011;2459;42.268;23.112;2022-12-07T09:23:00;24.50;;;11.40;;
4889;SDS011;2459;42.268;23.112;2022-12-07T09:25:26;19.80;;;11.73;;
4889;SDS011;2459;42.268;23.112;2022-12-07T09:27:56;20.20;;;11.60;;
4889;SDS011;2459;42.268;23.112;2022-12-07T09:30:23;19.23;;;9.63;;
4889;SDS011;2459;42.268;23.112;2022-12-07T09:32:49;14.10;;;9.50;;
4889;SDS011;2459;42.268;23.112;2022-12-07T09:38:20;20.90;;;9.00;;
4889;SDS011;2459;42.268;23.112;2022-12-07T09:40:46;24.13;;;8.20;;
4889;SDS011;2459;42.268;23.112;2022-12-07T09:43:13;21.63;;;8.90;;
4889;SDS011;2459;42.268;23.112;2022-12-07T09:45:41;24.80;;;9.10;;
4889;SDS011;2459;42.268;23.112;2022-12-07T09:48:09;8.63;;;5.50;;
4889;SDS011;2459;42.268;23.112;2022-12-07T09:50:40;18.40;;;7.83;;
4889;SDS011;2459;42.268;23.112;2022-12-07T09:53:09;13.13;;;6.23;;
4889;SDS011;2459;42.268;23.112;2022-12-07T09:55:40;20.00;;;6.50;;
4889;SDS011;2459;42.268;23.112;2022-12-07T09:58:08;17.47;;;6.37;;
4889;SDS011;2459;42.268;23.112;2022-12-07T10:00:41;24.80;;;7.07;;
4889;SDS011;2459;42.268;23.112;2022-12-07T10:03:07;10.93;;;4.73;;
4889;SDS011;2459;42.268;23.112;2022-12-07T10:08:24;8.67;;;4.90;;
4889;SDS011;2459;42.268;23.112;2022-12-07T10:10:53;10.47;;;5.83;;
4889;SDS011;2459;42.268;23.112;2022-12-07T10:13:21;21.70;;;8.20;;
4889;SDS011;2459;42.268;23.112;2022-12-07T10:15:49;13.67;;;4.73;;
4889;SDS011;2459;42.268;23.112;2022-12-07T10:18:27;10.70;;;5.10;;
4889;SDS011;2459;42.268;23.112;2022-12-07T10:21:01;9.00;;;4.80;;
4889;SDS011;2459;42.268;23.112;2022-12-07T10:23:28;12.87;;;5.70;;
4889;SDS011;2459;42.268;23.112;2022-12-07T10:25:56;12.53;;;5.63;;
4889;SDS011;2459;42.268;23.112;2022-12-07T10:28:22;12.93;;;5.00;;
4889;SDS011;2459;42.268;23.112;2022-12-07T10:30:51;9.00;;;4.40;;
4889;SDS011;2459;42.268;23.112;2022-12-07T10:33:27;9.87;;;4.50;;
4889;SDS011;2459;42.268;23.112;2022-12-07T10:35:54;11.90;;;3.80;;
4889;SDS011;2459;42.268;23.112;2022-12-07T10:41:25;3.90;;;3.10;;
4889;SDS011;2459;42.268;23.112;2022-12-07T10:43:52;5.50;;;3.60;;
4889;SDS011;2459;42.268;23.112;2022-12-07T10:46:26;5.87;;;2.73;;
4889;SDS011;2459;42.268;23.112;2022-12-07T10:48:57;10.67;;;4.70;;
4889;SDS011;2459;42.268;23.112;2022-12-07T10:51:27;16.17;;;3.77;;
4889;SDS011;2459;42.268;23.112;2022-12-07T10:53:58;13.00;;;4.10;;
4889;SDS011;2459;42.268;23.112;2022-12-07T10:59:24;12.60;;;4.07;;
4889;SDS011;2459;42.268;23.112;2022-12-07T11:01:57;11.57;;;3.87;;
4889;SDS011;2459;42.268;23.112;2022-12-07T11:04:33;10.63;;;3.43;;
4889;SDS011;2459;42.268;23.112;2022-12-07T11:10:13;24.33;;;5.03;;
4889;SDS011;2459;42.268;23.112;2022-12-07T11:12:54;13.10;;;4.67;;
4889;SDS011;2459;42.268;23.112;2022-12-07T11:15:22;8.27;;;4.40;;
4889;SDS011;2459;42.268;23.112;2022-12-07T11:17:52;14.03;;;4.13;;
4889;SDS011;2459;42.268;23.112;2022-12-07T11:20:27;5.63;;;3.60;;
4889;SDS011;2459;42.268;23.112;2022-12-07T11:22:57;8.00;;;3.60;;
4889;SDS011;2459;42.268;23.112;2022-12-07T11:25:27;10.00;;;3.70;;
4889;SDS011;2459;42.268;23.112;2022-12-07T11:28:02;4.87;;;3.47;;
4889;SDS011;2459;42.268;23.112;2022-12-07T11:30:31;24.30;;;8.73;;
4889;SDS011;2459;42.268;23.112;2022-12-07T11:33:02;12.80;;;6.10;;
4889;SDS011;2459;42.268;23.112;2022-12-07T11:38:47;10.63;;;5.47;;
4889;SDS011;2459;42.268;23.112;2022-12-07T11:41:16;5.70;;;3.73;;
4889;SDS011;2459;42.268;23.112;2022-12-07T11:43:52;6.13;;;3.63;;
4889;SDS011;2459;42.268;23.112;2022-12-07T11:46:20;10.57;;;4.50;;
4889;SDS011;2459;42.268;23.112;2022-12-07T11:48:50;10.63;;;3.03;;
4889;SDS011;2459;42.268;23.112;2022-12-07T11:51:18;7.40;;;4.00;;
4889;SDS011;2459;42.268;23.112;2022-12-07T11:53:46;15.20;;;4.47;;
4889;SDS011;2459;42.268;23.112;2022-12-07T11:56:15;15.20;;;6.40;;
4889;SDS011;2459;42.268;23.112;2022-12-07T12:01:51;9.73;;;3.60;;
4889;SDS011;2459;42.268;23.112;2022-12-07T12:04:23;7.40;;;3.00;;
4889;SDS011;2459;42.268;23.112;2022-12-07T12:06:51;12.10;;;3.70;;
4889;SDS011;2459;42.268;23.112;2022-12-07T12:09:19;11.83;;;3.20;;
4889;SDS011;2459;42.268;23.112;2022-12-07T12:11:54;9.87;;;3.80;;
4889;SDS011;2459;42.268;23.112;2022-12-07T12:17:20;9.37;;;4.90;;
4889;SDS011;2459;42.268;23.112;2022-12-07T12:19:57;9.10;;;4.67;;
4889;SDS011;2459;42.268;23.112;2022-12-07T12:22:27;13.40;;;4.40;;
4889;SDS011;2459;42.268;23.112;2022-12-07T12:24:55;10.40;;;4.37;;
4889;SDS011;2459;42.268;23.112;2022-12-07T12:27:23;13.00;;;5.07;;
4889;SDS011;2459;42.268;23.112;2022-12-07T12:29:52;10.93;;;4.70;;
4889;SDS011;2459;42.268;23.112;2022-12-07T12:32:21;14.43;;;4.40;;
4889;SDS011;2459;42.268;23.112;2022-12-07T12:34:58;13.83;;;5.73;;
4889;SDS011;2459;42.268;23.112;2022-12-07T12:37:41;8.37;;;4.60;;
4889;SDS011;2459;42.268;23.112;2022-12-07T12:42:56;12.43;;;5.00;;
4889;SDS011;2459;42.268;23.112;2022-12-07T12:45:24;21.20;;;5.03;;
4889;SDS011;2459;42.268;23.112;2022-12-07T12:47:56;6.53;;;4.20;;
4889;SDS011;2459;42.268;23.112;2022-12-07T12:50:24;5.97;;;4.20;;
4889;SDS011;2459;42.268;23.112;2022-12-07T12:52:52;9.63;;;3.30;;
4889;SDS011;2459;42.268;23.112;2022-12-07T13:00:46;6.67;;;3.03;;
4889;SDS011;2459;42.268;23.112;2022-12-07T13:03:21;6.37;;;3.70;;
4889;SDS011;2459;42.268;23.112;2022-12-07T13:05:48;12.67;;;3.37;;
4889;SDS011;2459;42.268;23.112;2022-12-07T13:08:35;6.80;;;4.00;;
4889;SDS011;2459;42.268;23.112;2022-12-07T13:13:50;19.47;;;4.30;;
4889;SDS011;2459;42.268;23.112;2022-12-07T13:21:59;6.00;;;4.70;;
4889;SDS011;2459;42.268;23.112;2022-12-07T13:24:26;11.17;;;5.33;;
4889;SDS011;2459;42.268;23.112;2022-12-07T13:26:54;7.47;;;4.63;;
4889;SDS011;2459;42.268;23.112;2022-12-07T13:29:21;9.10;;;5.03;;
4889;SDS011;2459;42.268;23.112;2022-12-07T13:31:48;18.50;;;7.60;;
4889;SDS011;2459;42.268;23.112;2022-12-07T13:34:28;15.27;;;9.00;;
4889;SDS011;2459;42.268;23.112;2022-12-07T13:36:54;14.67;;;5.87;;
4889;SDS011;2459;42.268;23.112;2022-12-07T13:39:23;6.67;;;4.97;;
4889;SDS011;2459;42.268;23.112;2022-12-07T13:41:51;8.50;;;4.67;;
4889;SDS011;2459;42.268;23.112;2022-12-07T13:44:18;8.23;;;4.80;;
4889;SDS011;2459;42.268;23.112;2022-12-07T13:46:49;10.80;;;5.83;;
4889;SDS011;2459;42.268;23.112;2022-12-07T13:49:17;14.90;;;5.17;;
4889;SDS011;2459;42.268;23.112;2022-12-07T13:51:44;7.07;;;5.20;;
4889;SDS011;2459;42.268;23.112;2022-12-07T13:57:18;8.97;;;5.47;;
4889;SDS011;2459;42.268;23.112;2022-12-07T13:59:44;9.67;;;5.27;;
4889;SDS011;2459;42.268;23.112;2022-12-07T14:02:17;9.13;;;5.13;;
4889;SDS011;2459;42.268;23.112;2022-12-07T14:04:45;14.63;;;6.07;;
4889;SDS011;2459;42.268;23.112;2022-12-07T14:07:22;22.00;;;6.03;;
4889;SDS011;2459;42.268;23.112;2022-12-07T14:09:57;29.30;;;7.47;;
4889;SDS011;2459;42.268;23.112;2022-12-07T14:12:25;8.03;;;5.83;;
4889;SDS011;2459;42.268;23.112;2022-12-07T14:14:52;24.53;;;8.60;;
4889;SDS011;2459;42.268;23.112;2022-12-07T14:17:20;17.93;;;9.20;;
4889;SDS011;2459;42.268;23.112;2022-12-07T14:19:49;22.63;;;7.57;;
4889;SDS011;2459;42.268;23.112;2022-12-07T14:22:24;20.03;;;9.83;;
4889;SDS011;2459;42.268;23.112;2022-12-07T14:24:57;12.57;;;7.97;;
4889;SDS011;2459;42.268;23.112;2022-12-07T14:27:29;16.90;;;8.63;;
4889;SDS011;2459;42.268;23.112;2022-12-07T14:29:58;25.43;;;8.87;;
4889;SDS011;2459;42.268;23.112;2022-12-07T14:32:25;15.73;;;8.30;;
4889;SDS011;2459;42.268;23.112;2022-12-07T14:34:58;12.27;;;7.77;;
4889;SDS011;2459;42.268;23.112;2022-12-07T14:37:25;30.97;;;10.93;;
4889;SDS011;2459;42.268;23.112;2022-12-07T14:39:52;24.40;;;8.80;;
4889;SDS011;2459;42.268;23.112;2022-12-07T14:42:18;23.03;;;9.13;;
4889;SDS011;2459;42.268;23.112;2022-12-07T14:44:46;18.00;;;8.70;;
4889;SDS011;2459;42.268;23.112;2022-12-07T14:47:13;18.40;;;8.17;;
4889;SDS011;2459;42.268;23.112;2022-12-07T14:49:39;16.43;;;8.87;;
4889;SDS011;2459;42.268;23.112;2022-12-07T14:52:09;22.43;;;8.40;;
4889;SDS011;2459;42.268;23.112;2022-12-07T14:54:38;12.33;;;7.80;;
4889;SDS011;2459;42.268;23.112;2022-12-07T14:57:06;16.00;;;8.00;;
4889;SDS011;2459;42.268;23.112;2022-12-07T14:59:33;17.23;;;9.17;;
4889;SDS011;2459;42.268;23.112;2022-12-07T15:02:01;21.10;;;8.80;;
4889;SDS011;2459;42.268;23.112;2022-12-07T15:04:27;15.63;;;9.20;;
4889;SDS011;2459;42.268;23.112;2022-12-07T15:06:55;34.90;;;13.37;;
4889;SDS011;2459;42.268;23.112;2022-12-07T15:09:22;29.83;;;14.13;;
4889;SDS011;2459;42.268;23.112;2022-12-07T15:11:48;28.30;;;15.50;;
4889;SDS011;2459;42.268;23.112;2022-12-07T15:14:14;35.87;;;11.83;;
4889;SDS011;2459;42.268;23.112;2022-12-07T15:16:43;24.73;;;10.27;;
4889;SDS011;2459;42.268;23.112;2022-12-07T15:19:17;20.07;;;9.60;;
4889;SDS011;2459;42.268;23.112;2022-12-07T15:21:44;22.43;;;8.30;;
4889;SDS011;2459;42.268;23.112;2022-12-07T15:24:12;14.40;;;7.80;;
4889;SDS011;2459;42.268;23.112;2022-12-07T15:26:39;18.77;;;8.43;;
4889;SDS011;2459;42.268;23.112;2022-12-07T15:29:06;21.03;;;7.20;;
4889;SDS011;2459;42.268;23.112;2022-12-07T15:31:33;25.00;;;9.17;;
4889;SDS011;2459;42.268;23.112;2022-12-07T15:34:00;11.23;;;7.40;;